LSME METAR and TAF | Updated Today

LSME METAR

Emmen Air Base

Observation time: 17 min. ago

LSME 200650Z VRB01KT CAVOK 21/16 Q1024 RMK BLU

Need help? Read our tutorial on how to read METARs or read the parsed version below.

Emmen Air Base (LSME) METAR

  • Weather conditions on Fri, 20 May 2022 06:50:00 +0000 (17 min. ago):
  • Present conditions: Dry
  • Clouds: Clear skies
  • Visibility: Greater than 10 km
  • Wind: Variable at 1 knots
  • Temperature: 21 celsius
  • Dew point: 16 celsius
  • Pressure: 1024 millibars
  • Remarks: BLU


Useful to know...